Time;durP1;ratioP1;P1;durP2;ratioP2;P2;SDS_P1;SDS_P2;PMS_P1;PMS_P2;Temp;Humidity;BMP_temperature;BMP_pressure;BME280_temperature;BME280_humidity;BME280_pressure;Samples;Min_cycle;Max_cycle;Signal;HPM_P1;HPM_P2
2022/11/26 00:02:19;;;;;;;;;21.33;18.00;;;;;;;;5096920;27;45469;-63
2022/11/26 00:04:45;;;;;;;;;18.00;14.00;;;;;;;;5097051;27;45657;-63
2022/11/26 00:07:11;;;;;;;;;18.00;11.00;;;;;;;;5097352;27;45410;-63
2022/11/26 00:09:36;;;;;;;;;15.75;12.25;;;;;;;;5098805;27;45423;-63
2022/11/26 00:12:12;;;;;;;;;19.25;11.50;;;;;;;;5100755;27;45388;-63
2022/11/26 00:14:38;;;;;;;;;13.00;11.00;;;;;;;;5100403;27;45229;-63
2022/11/26 00:17:03;;;;;;;;;19.00;13.67;;;;;;;;5100829;27;45503;-63
2022/11/26 00:19:28;;;;;;;;;14.00;12.00;;;;;;;;5100201;27;46676;-63
2022/11/26 00:21:54;;;;;;;;;14.00;13.00;;;;;;;;5100568;27;45268;-63
2022/11/26 00:24:28;;;;;;;;;17.00;11.00;;;;;;;;5100012;27;45440;-63
2022/11/26 00:26:55;;;;;;;;;19.00;15.67;;;;;;;;5100874;27;45244;-63
2022/11/26 00:29:20;;;;;;;;;18.33;11.67;;;;;;;;5100438;27;46315;-63
2022/11/26 00:31:45;;;;;;;;;15.25;11.50;;;;;;;;5100146;27;45366;-63
2022/11/26 00:34:11;;;;;;;;;16.00;10.00;;;;;;;;5099821;27;45383;-63
2022/11/26 00:36:36;;;;;;;;;17.25;10.25;;;;;;;;5100789;27;45341;-63
2022/11/26 00:39:05;;;;;;;;;20.00;16.67;;;;;;;;5100098;27;46506;-63
2022/11/26 00:41:31;;;;;;;;;10.33;9.67;;;;;;;;5100355;27;45520;-63
2022/11/26 00:43:57;;;;;;;;;15.00;11.00;;;;;;;;5100257;27;45365;-63
2022/11/26 00:46:22;;;;;;;;;18.25;10.75;;;;;;;;5100218;27;45359;-63
2022/11/26 00:48:48;;;;;;;;;14.67;11.00;;;;;;;;5099737;27;46803;-64
2022/11/26 00:51:15;;;;;;;;;11.50;11.50;;;;;;;;5099562;27;45239;-63
2022/11/26 00:53:41;;;;;;;;;17.50;12.00;;;;;;;;5100047;27;45782;-63
2022/11/26 00:56:11;;;;;;;;;18.33;12.00;;;;;;;;5100188;27;45385;-64
2022/11/26 00:58:36;;;;;;;;;15.50;11.75;;;;;;;;5099929;27;45679;-63
2022/11/26 01:01:02;;;;;;;;;5.50;5.00;;;;;;;;5099783;27;45460;-63
2022/11/26 01:03:28;;;;;;;;;12.25;12.25;;;;;;;;5102351;27;45520;-63
2022/11/26 01:05:56;;;;;;;;;20.33;13.33;;;;;;;;5108768;27;45493;-63
2022/11/26 01:08:31;;;;;;;;;12.67;9.67;;;;;;;;5098726;27;45279;-63
2022/11/26 01:10:57;;;;;;;;;16.00;11.25;;;;;;;;5099785;27;45401;-64
2022/11/26 01:13:22;;;;;;;;;15.33;12.00;;;;;;;;5099690;27;45402;-63
2022/11/26 01:15:48;;;;;;;;;19.75;12.00;;;;;;;;5099893;27;45433;-62
2022/11/26 01:18:15;;;;;;;;;12.00;10.50;;;;;;;;5099258;27;45576;-62
2022/11/26 01:20:40;;;;;;;;;17.25;11.00;;;;;;;;5098092;27;45963;-63
2022/11/26 01:23:05;;;;;;;;;22.25;16.00;;;;;;;;5099628;27;45410;-62
2022/11/26 01:25:30;;;;;;;;;11.50;10.00;;;;;;;;5102069;27;45615;-63
2022/11/26 01:27:55;;;;;;;;;14.67;12.00;;;;;;;;5108224;27;46653;-63
2022/11/26 01:30:25;;;;;;;;;18.67;11.00;;;;;;;;5099316;27;45457;-63
2022/11/26 01:32:50;;;;;;;;;16.00;12.00;;;;;;;;5099703;27;45479;-63
2022/11/26 01:35:16;;;;;;;;;19.50;15.00;;;;;;;;5099348;27;45807;-63
2022/11/26 01:37:42;;;;;;;;;12.75;12.75;;;;;;;;5111310;27;46649;-64
2022/11/26 01:40:30;;;;;;;;;16.67;12.33;;;;;;;;5118133;27;45429;-64
2022/11/26 01:42:59;;;;;;;;;14.25;10.75;;;;;;;;5072465;28;45541;-64
2022/11/26 01:45:25;;;;;;;;;13.25;12.25;;;;;;;;5074317;28;45488;-64
2022/11/26 01:47:50;;;;;;;;;14.75;12.50;;;;;;;;5075550;28;45498;-64
2022/11/26 01:50:28;;;;;;;;;12.75;11.25;;;;;;;;5075392;28;45447;-64
2022/11/26 01:53:03;;;;;;;;;11.00;9.75;;;;;;;;5075630;28;45497;-64
2022/11/26 01:55:33;;;;;;;;;11.00;9.25;;;;;;;;5072428;27;45345;-64
2022/11/26 01:57:58;;;;;;;;;9.00;9.00;;;;;;;;5076348;28;45581;-64
2022/11/26 02:00:23;;;;;;;;;12.75;8.00;;;;;;;;5076269;28;45344;-64
2022/11/26 02:02:49;;;;;;;;;11.00;10.00;;;;;;;;5076156;28;45451;-64
2022/11/26 02:05:18;;;;;;;;;33.00;30.00;;;;;;;;5076333;28;45436;-62
2022/11/26 02:07:44;;;;;;;;;16.00;10.75;;;;;;;;5075909;28;46746;-62
2022/11/26 02:10:11;;;;;;;;;10.00;7.50;;;;;;;;5075103;27;46115;-62
2022/11/26 02:12:36;;;;;;;;;8.50;6.75;;;;;;;;5076194;28;45360;-62
2022/11/26 02:15:02;;;;;;;;;6.00;5.00;;;;;;;;5076431;28;45458;-62
2022/11/26 02:17:38;;;;;;;;;12.00;9.25;;;;;;;;5075681;28;46877;-62
2022/11/26 02:20:22;;;;;;;;;10.25;5.25;;;;;;;;5048888;28;45602;-62
2022/11/26 02:22:50;;;;;;;;;12.75;8.25;;;;;;;;5057970;28;45521;-64
2022/11/26 02:25:24;;;;;;;;;12.00;8.50;;;;;;;;5057877;28;45315;-64
2022/11/26 02:28:09;;;;;;;;;11.75;8.00;;;;;;;;5066404;27;47252;-65
2022/11/26 02:30:36;;;;;;;;;9.50;8.00;;;;;;;;5078055;28;45210;-63
2022/11/26 02:33:08;;;;;;;;;9.25;6.25;;;;;;;;5077055;27;45487;-65
2022/11/26 02:35:33;;;;;;;;;7.00;5.25;;;;;;;;5078009;27;45431;-65
2022/11/26 02:38:02;;;;;;;;;11.00;9.75;;;;;;;;5077887;28;46077;-62
2022/11/26 02:40:27;;;;;;;;;4.00;3.50;;;;;;;;5077872;27;45246;-62
2022/11/26 02:42:53;;;;;;;;;12.25;7.75;;;;;;;;5078096;27;45405;-62
2022/11/26 02:45:23;;;;;;;;;8.00;8.00;;;;;;;;5064771;27;45264;-62
2022/11/26 02:47:51;;;;;;;;;10.25;7.75;;;;;;;;5057141;28;45302;-62
2022/11/26 02:50:19;;;;;;;;;11.75;7.50;;;;;;;;5057472;28;45405;-62
2022/11/26 02:52:46;;;;;;;;;11.50;9.75;;;;;;;;5057398;28;45497;-62
2022/11/26 02:55:12;;;;;;;;;14.00;9.50;;;;;;;;5057587;28;45313;-62
2022/11/26 02:57:42;;;;;;;;;11.50;8.00;;;;;;;;5057123;28;46295;-62
2022/11/26 03:00:08;;;;;;;;;18.75;7.75;;;;;;;;5056557;28;45461;-62
2022/11/26 03:02:38;;;;;;;;;9.00;8.00;;;;;;;;5057420;28;45332;-62
2022/11/26 03:05:05;;;;;;;;;12.75;9.00;;;;;;;;5057583;28;45390;-62
2022/11/26 03:07:31;;;;;;;;;14.75;10.00;;;;;;;;5056675;28;45465;-62
2022/11/26 03:09:57;;;;;;;;;12.00;6.50;;;;;;;;5057107;28;45462;-62
2022/11/26 03:12:23;;;;;;;;;12.75;8.75;;;;;;;;5076606;28;45291;-62
2022/11/26 03:14:48;;;;;;;;;9.00;6.50;;;;;;;;5077517;27;45466;-62
2022/11/26 03:17:14;;;;;;;;;13.00;10.00;;;;;;;;5077182;28;46642;-62
2022/11/26 03:19:39;;;;;;;;;9.75;9.00;;;;;;;;5086445;27;45350;-62
2022/11/26 03:22:05;;;;;;;;;15.25;9.75;;;;;;;;5097634;27;45423;-62
2022/11/26 03:24:30;;;;;;;;;12.50;9.25;;;;;;;;5097841;27;45366;-62
2022/11/26 03:26:55;;;;;;;;;11.67;10.67;;;;;;;;5097561;27;46391;-62
2022/11/26 03:29:20;;;;;;;;;11.33;10.00;;;;;;;;5097297;27;45466;-62
2022/11/26 03:31:46;;;;;;;;;16.67;9.00;;;;;;;;5097556;27;45516;-62
2022/11/26 03:34:11;;;;;;;;;14.00;10.33;;;;;;;;5097882;27;45485;-62
2022/11/26 03:36:36;;;;;;;;;15.67;12.00;;;;;;;;5096664;27;46825;-62
2022/11/26 03:39:02;;;;;;;;;17.67;12.00;;;;;;;;5097515;27;45365;-62
2022/11/26 03:41:27;;;;;;;;;14.00;11.25;;;;;;;;5097649;27;45338;-62
2022/11/26 03:43:52;;;;;;;;;19.67;17.33;;;;;;;;5099847;27;45319;-62
2022/11/26 03:46:17;;;;;;;;;15.33;11.00;;;;;;;;5101133;27;46589;-62
2022/11/26 03:48:43;;;;;;;;;15.00;11.33;;;;;;;;5100937;27;45456;-62
2022/11/26 03:51:08;;;;;;;;;15.67;12.67;;;;;;;;5100893;27;45442;-62
2022/11/26 03:53:33;;;;;;;;;12.67;11.00;;;;;;;;5100711;27;45283;-62
2022/11/26 03:55:58;;;;;;;;;21.33;14.00;;;;;;;;5100848;27;46332;-62
2022/11/26 03:58:23;;;;;;;;;14.67;9.67;;;;;;;;5100777;27;45233;-62
2022/11/26 04:00:49;;;;;;;;;12.75;11.00;;;;;;;;5100692;27;45437;-62
2022/11/26 04:03:14;;;;;;;;;12.00;10.67;;;;;;;;5101233;27;45468;-62
2022/11/26 04:05:39;;;;;;;;;16.33;11.00;;;;;;;;5100478;27;46723;-63
2022/11/26 04:08:04;;;;;;;;;16.67;12.00;;;;;;;;5100520;27;45351;-62
2022/11/26 04:10:30;;;;;;;;;15.50;12.00;;;;;;;;5100530;27;45327;-62
2022/11/26 04:12:55;;;;;;;;;12.33;9.00;;;;;;;;5100925;27;45321;-62
2022/11/26 04:15:20;;;;;;;;;14.75;8.00;;;;;;;;5100689;27;45597;-62
2022/11/26 04:17:45;;;;;;;;;13.75;11.00;;;;;;;;5100527;27;45283;-62
2022/11/26 04:20:10;;;;;;;;;12.33;12.00;;;;;;;;5100449;27;45390;-62
2022/11/26 04:22:36;;;;;;;;;14.00;10.50;;;;;;;;5100898;27;45577;-62
2022/11/26 04:25:01;;;;;;;;;9.50;8.50;;;;;;;;5100414;27;45414;-62
2022/11/26 04:27:26;;;;;;;;;16.00;9.50;;;;;;;;5099776;27;45432;-62
2022/11/26 04:29:51;;;;;;;;;11.50;9.75;;;;;;;;5100531;27;45523;-62
2022/11/26 04:32:16;;;;;;;;;10.75;9.25;;;;;;;;5100197;27;45527;-62
2022/11/26 04:34:42;;;;;;;;;13.25;8.75;;;;;;;;5100211;27;46349;-62
2022/11/26 04:37:07;;;;;;;;;11.67;9.00;;;;;;;;5100136;27;45383;-62
2022/11/26 04:39:32;;;;;;;;;12.25;10.00;;;;;;;;5100499;27;45300;-62
2022/11/26 04:41:57;;;;;;;;;14.50;10.00;;;;;;;;5099705;27;45192;-62
2022/11/26 04:44:23;;;;;;;;;14.50;11.25;;;;;;;;5099903;27;46510;-62
2022/11/26 04:46:48;;;;;;;;;9.50;8.25;;;;;;;;5100329;27;45606;-62
2022/11/26 04:49:13;;;;;;;;;10.67;9.00;;;;;;;;5099881;27;45384;-62
2022/11/26 04:51:39;;;;;;;;;8.33;8.00;;;;;;;;5100351;27;45452;-62
2022/11/26 04:54:04;;;;;;;;;15.50;9.00;;;;;;;;5099307;27;46884;-62
2022/11/26 04:56:29;;;;;;;;;18.00;11.33;;;;;;;;5099389;27;45520;-62
2022/11/26 04:58:54;;;;;;;;;15.33;11.00;;;;;;;;5099580;27;48503;-62
2022/11/26 05:01:20;;;;;;;;;20.00;10.75;;;;;;;;5100068;27;45419;-62
2022/11/26 05:03:45;;;;;;;;;12.00;9.67;;;;;;;;5099665;27;45611;-62
2022/11/26 05:06:10;;;;;;;;;14.67;11.00;;;;;;;;5099894;27;45401;-62
2022/11/26 05:08:35;;;;;;;;;20.67;17.00;;;;;;;;5099650;27;45351;-62
2022/11/26 05:11:02;;;;;;;;;16.75;13.75;;;;;;;;5099867;27;45268;-62
2022/11/26 05:13:27;;;;;;;;;21.67;14.33;;;;;;;;5099532;27;47382;-62
2022/11/26 05:15:52;;;;;;;;;18.67;17.67;;;;;;;;5113088;27;45407;-62
2022/11/26 05:18:17;;;;;;;;;21.00;13.00;;;;;;;;5120258;27;45481;-62
2022/11/26 05:20:43;;;;;;;;;20.00;16.00;;;;;;;;5120550;27;45420;-62
2022/11/26 05:23:08;;;;;;;;;14.00;11.50;;;;;;;;5119908;27;46474;-62
2022/11/26 05:25:33;;;;;;;;;16.00;16.00;;;;;;;;5120176;27;45398;-62
2022/11/26 05:27:58;;;;;;;;;25.67;17.33;;;;;;;;5120357;27;45495;-62
2022/11/26 05:30:24;;;;;;;;;19.00;13.00;;;;;;;;5120377;27;45473;-61
2022/11/26 05:32:49;;;;;;;;;13.67;12.00;;;;;;;;5106280;27;45386;-62
2022/11/26 05:35:14;;;;;;;;;26.50;15.75;;;;;;;;5099395;27;45534;-61
2022/11/26 05:37:39;;;;;;;;;26.33;18.00;;;;;;;;5099230;27;45797;-61
2022/11/26 05:40:05;;;;;;;;;19.33;11.00;;;;;;;;5099830;27;45178;-62
2022/11/26 05:42:30;;;;;;;;;16.00;13.33;;;;;;;;5099188;27;47018;-62
2022/11/26 05:44:55;;;;;;;;;17.67;15.00;;;;;;;;5099269;27;45399;-62
2022/11/26 05:47:20;;;;;;;;;16.33;11.33;;;;;;;;5099312;27;45451;-62
2022/11/26 05:49:46;;;;;;;;;16.00;13.33;;;;;;;;5098939;27;45381;-62
2022/11/26 05:52:12;;;;;;;;;21.00;13.33;;;;;;;;5099001;27;45297;-62
2022/11/26 05:54:37;;;;;;;;;14.67;10.33;;;;;;;;5099063;27;45190;-62
2022/11/26 05:57:02;;;;;;;;;10.67;10.00;;;;;;;;5099343;27;45188;-62
2022/11/26 05:59:28;;;;;;;;;15.67;11.67;;;;;;;;5099291;27;45366;-61
2022/11/26 06:01:53;;;;;;;;;19.00;15.00;;;;;;;;5098744;27;46276;-62
2022/11/26 06:04:18;;;;;;;;;18.33;14.67;;;;;;;;5099074;27;45448;-62
2022/11/26 06:06:43;;;;;;;;;16.67;12.00;;;;;;;;5098387;27;45795;-61
2022/11/26 06:09:09;;;;;;;;;16.33;12.00;;;;;;;;5098787;27;45391;-62
2022/11/26 06:11:34;;;;;;;;;12.75;11.00;;;;;;;;5098677;27;45424;-61
2022/11/26 06:13:59;;;;;;;;;13.33;12.00;;;;;;;;5098906;27;45520;-62
2022/11/26 06:16:24;;;;;;;;;12.67;12.67;;;;;;;;5099033;27;45420;-61
2022/11/26 06:18:50;;;;;;;;;16.67;13.67;;;;;;;;5098890;27;45330;-62
2022/11/26 06:21:15;;;;;;;;;14.67;11.33;;;;;;;;5098650;27;46504;-62
2022/11/26 06:23:40;;;;;;;;;16.75;12.25;;;;;;;;5098396;27;45379;-62
2022/11/26 06:26:06;;;;;;;;;12.00;9.00;;;;;;;;5098576;27;45411;-61
2022/11/26 06:28:31;;;;;;;;;18.75;11.25;;;;;;;;5098736;27;45560;-61
2022/11/26 06:30:56;;;;;;;;;15.00;12.00;;;;;;;;5098417;27;45490;-61
2022/11/26 06:33:21;;;;;;;;;15.75;10.75;;;;;;;;5098549;27;45306;-62
2022/11/26 06:35:47;;;;;;;;;16.50;11.25;;;;;;;;5098618;27;45344;-61
2022/11/26 06:38:12;;;;;;;;;11.75;9.50;;;;;;;;5098686;27;45232;-61
2022/11/26 06:40:37;;;;;;;;;16.00;12.00;;;;;;;;5097822;27;45445;-62
2022/11/26 06:43:02;;;;;;;;;11.75;9.00;;;;;;;;5098400;27;45344;-61
2022/11/26 06:45:27;;;;;;;;;15.67;11.00;;;;;;;;5098510;27;45700;-61
2022/11/26 06:47:53;;;;;;;;;10.00;9.00;;;;;;;;5098487;27;45425;-62
2022/11/26 06:50:19;;;;;;;;;11.50;8.75;;;;;;;;5098163;27;47264;-61
2022/11/26 06:52:45;;;;;;;;;18.75;10.75;;;;;;;;5098231;27;45483;-61
2022/11/26 06:55:10;;;;;;;;;11.75;9.50;;;;;;;;5097876;27;45508;-64
2022/11/26 06:57:35;;;;;;;;;14.25;8.00;;;;;;;;5097856;27;45353;-62
2022/11/26 07:00:01;;;;;;;;;14.67;10.67;;;;;;;;5097785;27;45368;-61
2022/11/26 07:02:26;;;;;;;;;15.67;13.67;;;;;;;;5098039;27;45270;-62
2022/11/26 07:04:51;;;;;;;;;17.00;10.33;;;;;;;;5098049;27;45294;-61
2022/11/26 07:07:16;;;;;;;;;12.67;9.00;;;;;;;;5098171;27;45352;-61
2022/11/26 07:09:42;;;;;;;;;14.00;9.00;;;;;;;;5097643;27;45533;-62
2022/11/26 07:12:07;;;;;;;;;19.00;15.00;;;;;;;;5097865;27;45365;-61
2022/11/26 07:14:32;;;;;;;;;12.33;10.67;;;;;;;;5097300;27;45435;-61
2022/11/26 07:16:57;;;;;;;;;15.00;11.67;;;;;;;;5097795;27;45329;-61
2022/11/26 07:19:23;;;;;;;;;14.00;11.00;;;;;;;;5096896;27;45287;-61
2022/11/26 07:21:48;;;;;;;;;20.67;14.00;;;;;;;;5097816;27;45343;-61
2022/11/26 07:24:13;;;;;;;;;16.50;16.00;;;;;;;;5097707;27;45268;-61
2022/11/26 07:26:39;;;;;;;;;11.67;6.33;;;;;;;;5097974;27;45364;-62
2022/11/26 07:29:04;;;;;;;;;14.25;12.00;;;;;;;;5097460;27;45484;-62
2022/11/26 07:31:29;;;;;;;;;11.33;10.00;;;;;;;;5097728;27;45323;-61
2022/11/26 07:33:55;;;;;;;;;16.00;11.00;;;;;;;;5097071;27;45544;-61
2022/11/26 07:36:21;;;;;;;;;10.00;9.00;;;;;;;;5097844;27;45460;-61
2022/11/26 07:38:47;;;;;;;;;8.00;8.00;;;;;;;;5097495;27;46798;-62
2022/11/26 07:41:13;;;;;;;;;2.50;2.00;;;;;;;;5097486;27;45364;-61
2022/11/26 07:43:40;;;;;;;;;9.50;6.50;;;;;;;;5097625;27;45339;-61
2022/11/26 07:46:06;;;;;;;;;14.67;13.00;;;;;;;;5097746;27;45379;-62
2022/11/26 07:48:32;;;;;;;;;12.25;11.25;;;;;;;;5096488;27;46280;-61
2022/11/26 07:50:58;;;;;;;;;13.75;13.75;;;;;;;;5097281;27;45316;-62
2022/11/26 07:53:23;;;;;;;;;12.00;10.25;;;;;;;;5097489;27;45189;-61
2022/11/26 07:55:49;;;;;;;;;9.75;9.00;;;;;;;;5097549;27;45412;-62
2022/11/26 07:58:14;;;;;;;;;13.33;9.00;;;;;;;;5096920;27;46593;-61
2022/11/26 08:00:39;;;;;;;;;13.50;9.50;;;;;;;;5097037;27;45352;-64
2022/11/26 08:03:04;;;;;;;;;10.50;8.25;;;;;;;;5097468;27;45428;-62
2022/11/26 08:05:29;;;;;;;;;11.75;9.00;;;;;;;;5096975;27;47228;-61
2022/11/26 08:07:55;;;;;;;;;14.25;8.75;;;;;;;;5097267;27;46530;-61
2022/11/26 08:10:20;;;;;;;;;11.25;9.50;;;;;;;;5096797;27;45476;-61
2022/11/26 08:12:45;;;;;;;;;11.25;8.75;;;;;;;;5097307;27;45413;-62
2022/11/26 08:15:10;;;;;;;;;9.00;9.00;;;;;;;;5097514;27;45437;-62
2022/11/26 08:17:36;;;;;;;;;16.50;11.25;;;;;;;;5096863;27;46664;-64
2022/11/26 08:20:01;;;;;;;;;13.33;10.00;;;;;;;;5096687;27;45430;-62
2022/11/26 08:22:27;;;;;;;;;17.67;12.67;;;;;;;;5096593;27;45589;-62
2022/11/26 08:24:53;;;;;;;;;27.00;20.67;;;;;;;;5097158;27;45384;-62
2022/11/26 08:27:18;;;;;;;;;17.67;11.67;;;;;;;;5098836;27;46159;-63
2022/11/26 08:29:43;;;;;;;;;13.33;7.33;;;;;;;;5116852;27;45359;-63
2022/11/26 08:32:08;;;;;;;;;18.67;14.00;;;;;;;;5120788;27;45501;-62
2022/11/26 08:34:34;;;;;;;;;12.50;11.75;;;;;;;;5120644;27;45508;-63
2022/11/26 08:36:59;;;;;;;;;18.67;11.00;;;;;;;;5120107;27;45483;-64
2022/11/26 08:39:24;;;;;;;;;16.25;12.00;;;;;;;;5118965;27;45692;-64
2022/11/26 08:41:49;;;;;;;;;36.67;32.67;;;;;;;;5120062;27;45417;-64
2022/11/26 08:44:15;;;;;;;;;21.00;16.67;;;;;;;;5120576;27;45494;-63
2022/11/26 08:46:40;;;;;;;;;16.25;12.75;;;;;;;;5120231;27;45476;-64
2022/11/26 08:49:07;;;;;;;;;12.50;10.00;;;;;;;;5119697;27;45399;-63
2022/11/26 08:51:32;;;;;;;;;13.33;10.33;;;;;;;;5120120;27;45427;-63
2022/11/26 08:53:57;;;;;;;;;18.00;12.33;;;;;;;;5120237;27;45237;-63
2022/11/26 08:56:23;;;;;;;;;13.67;13.67;;;;;;;;5115371;27;46900;-64
2022/11/26 08:58:50;;;;;;;;;20.67;17.33;;;;;;;;5117445;27;45658;-64
2022/11/26 09:01:19;;;;;;;;;20.00;14.67;;;;;;;;5117010;27;45496;-64
2022/11/26 09:03:49;;;;;;;;;19.33;16.00;;;;;;;;5118867;27;45512;-63
2022/11/26 09:06:14;;;;;;;;;39.67;33.67;;;;;;;;5115675;27;47429;-63
2022/11/26 09:11:24;;;;;;;;;12.50;12.50;;;;;;;;5116316;27;45258;-63
2022/11/26 09:13:49;;;;;;;;;24.33;20.00;;;;;;;;5116396;27;45451;-63
2022/11/26 09:16:15;;;;;;;;;19.00;15.33;;;;;;;;5116502;27;46393;-63
2022/11/26 09:18:40;;;;;;;;;15.00;10.67;;;;;;;;5118159;27;45405;-63
2022/11/26 09:21:05;;;;;;;;;15.67;15.33;;;;;;;;5116111;27;45886;-62
2022/11/26 09:23:31;;;;;;;;;16.67;16.33;;;;;;;;5118953;27;45453;-61
2022/11/26 09:25:56;;;;;;;;;15.00;13.67;;;;;;;;5115191;27;47259;-61
2022/11/26 09:28:21;;;;;;;;;20.00;18.00;;;;;;;;5117866;27;45401;-62
2022/11/26 09:30:46;;;;;;;;;16.33;14.00;;;;;;;;5113731;27;45672;-62
2022/11/26 09:33:11;;;;;;;;;21.33;15.00;;;;;;;;5117657;27;45496;-61
2022/11/26 09:35:37;;;;;;;;;20.33;17.33;;;;;;;;5114418;27;46618;-61
2022/11/26 09:38:02;;;;;;;;;14.33;10.33;;;;;;;;5115995;27;45540;-63
2022/11/26 09:40:36;;;;;;;;;19.67;14.00;;;;;;;;5117183;27;45299;-79
2022/11/26 09:43:15;;;;;;;;;13.00;12.50;;;;;;;;5117157;27;46264;-62
2022/11/26 09:45:44;;;;;;;;;17.67;14.00;;;;;;;;5100703;27;46228;-62
2022/11/26 09:48:15;;;;;;;;;16.67;15.00;;;;;;;;5112325;27;45534;-62
2022/11/26 09:50:42;;;;;;;;;17.67;15.00;;;;;;;;5117824;27;45399;-62
2022/11/26 09:53:13;;;;;;;;;30.33;18.33;;;;;;;;5107774;27;45502;-62
2022/11/26 09:55:40;;;;;;;;;15.00;15.00;;;;;;;;5096686;27;46205;-62
2022/11/26 09:58:18;;;;;;;;;18.67;18.33;;;;;;;;5105019;27;45799;-62
2022/11/26 10:00:47;;;;;;;;;21.00;14.67;;;;;;;;5114432;27;45622;-62
2022/11/26 10:03:14;;;;;;;;;18.75;14.00;;;;;;;;5114463;27;45562;-62
2022/11/26 10:05:43;;;;;;;;;19.00;13.00;;;;;;;;5115223;27;46138;-62
2022/11/26 10:08:14;;;;;;;;;22.67;14.67;;;;;;;;5116187;27;45391;-62
2022/11/26 10:11:00;;;;;;;;;27.00;23.67;;;;;;;;5107234;27;45392;-62
2022/11/26 10:13:47;;;;;;;;;22.67;16.00;;;;;;;;5096125;27;45655;-62
2022/11/26 10:16:31;;;;;;;;;22.67;16.00;;;;;;;;5096776;27;46757;-62
2022/11/26 10:18:59;;;;;;;;;20.67;17.67;;;;;;;;5097448;27;45413;-62
2022/11/26 10:21:45;;;;;;;;;15.00;13.33;;;;;;;;5098759;27;45365;-62
2022/11/26 10:24:32;;;;;;;;;21.00;14.67;;;;;;;;5098673;27;45319;-62
2022/11/26 10:27:00;;;;;;;;;17.00;13.00;;;;;;;;5098400;27;46385;-62
2022/11/26 10:29:26;;;;;;;;;18.33;15.00;;;;;;;;5097559;27;45234;-62
2022/11/26 10:32:08;;;;;;;;;18.00;16.67;;;;;;;;5098315;27;45388;-63
2022/11/26 10:34:38;;;;;;;;;21.00;19.00;;;;;;;;5098530;27;45658;-62
2022/11/26 10:37:03;;;;;;;;;18.75;15.25;;;;;;;;5097948;27;46414;-62
2022/11/26 10:39:29;;;;;;;;;25.33;18.67;;;;;;;;5098146;27;45265;-62
2022/11/26 10:41:55;;;;;;;;;13.75;12.00;;;;;;;;5097893;27;45445;-62
2022/11/26 10:44:26;;;;;;;;;16.50;13.50;;;;;;;;5097603;27;46031;-62
2022/11/26 10:46:51;;;;;;;;;16.00;14.00;;;;;;;;5098002;27;45758;-62
2022/11/26 10:49:22;;;;;;;;;13.75;10.25;;;;;;;;5098112;27;45297;-63
2022/11/26 10:51:48;;;;;;;;;16.00;12.25;;;;;;;;5097850;27;45363;-63
2022/11/26 10:54:21;;;;;;;;;21.33;17.33;;;;;;;;5097639;27;45362;-63
2022/11/26 10:56:51;;;;;;;;;18.00;15.00;;;;;;;;5097751;27;46723;-63
2022/11/26 10:59:19;;;;;;;;;16.00;10.75;;;;;;;;5097953;27;45461;-63
2022/11/26 11:01:45;;;;;;;;;32.67;29.67;;;;;;;;5110890;27;45533;-63
2022/11/26 11:04:30;;;;;;;;;17.67;15.00;;;;;;;;5114071;27;45397;-63
2022/11/26 11:06:56;;;;;;;;;33.67;27.00;;;;;;;;5097389;27;46252;-63
2022/11/26 11:09:26;;;;;;;;;17.00;12.25;;;;;;;;5097695;27;45356;-64
2022/11/26 11:12:11;;;;;;;;;18.00;16.67;;;;;;;;5098033;27;45901;-63
2022/11/26 11:14:39;;;;;;;;;17.75;14.75;;;;;;;;5086870;27;46445;-63
2022/11/26 11:17:04;;;;;;;;;13.33;13.33;;;;;;;;5097759;27;45757;-63
2022/11/26 11:19:30;;;;;;;;;16.67;15.00;;;;;;;;5097550;27;45476;-63
2022/11/26 11:21:56;;;;;;;;;20.67;16.00;;;;;;;;5097989;27;45421;-63
2022/11/26 11:24:28;;;;;;;;;19.00;15.67;;;;;;;;5097550;27;45498;-63
2022/11/26 11:26:59;;;;;;;;;18.50;13.00;;;;;;;;5096595;27;46279;-63
2022/11/26 11:29:35;;;;;;;;;17.00;12.75;;;;;;;;5099050;27;45483;-63
2022/11/26 11:32:03;;;;;;;;;18.50;13.50;;;;;;;;5118254;27;45322;-63
2022/11/26 11:34:30;;;;;;;;;23.00;16.00;;;;;;;;5118440;27;45405;-62
2022/11/26 11:37:03;;;;;;;;;15.75;13.00;;;;;;;;5117860;27;46036;-63
2022/11/26 11:39:30;;;;;;;;;19.67;13.00;;;;;;;;5117931;27;45350;-63
2022/11/26 11:41:57;;;;;;;;;15.75;12.00;;;;;;;;5116876;27;45427;-63
2022/11/26 11:44:25;;;;;;;;;20.00;14.67;;;;;;;;5118250;27;45503;-63
2022/11/26 11:47:09;;;;;;;;;20.25;15.50;;;;;;;;5117822;27;46488;-63
2022/11/26 11:49:43;;;;;;;;;25.33;18.00;;;;;;;;5104122;27;46872;-63
2022/11/26 11:52:17;;;;;;;;;17.67;14.00;;;;;;;;5097549;27;45453;-62
2022/11/26 11:54:55;;;;;;;;;16.00;14.33;;;;;;;;5096690;27;45533;-63
2022/11/26 11:57:39;;;;;;;;;16.75;15.50;;;;;;;;5096973;27;46200;-62
2022/11/26 12:00:12;;;;;;;;;13.25;8.25;;;;;;;;5096349;27;45419;-62
2022/11/26 12:02:40;;;;;;;;;14.67;13.33;;;;;;;;5096808;27;45484;-62
2022/11/26 12:05:23;;;;;;;;;9.00;8.00;;;;;;;;5099903;27;45393;-62
2022/11/26 12:08:20;;;;;;;;;21.00;17.00;;;;;;;;5100737;27;46230;-60
2022/11/26 12:10:52;;;;;;;;;24.00;21.00;;;;;;;;5036509;28;45227;-60
2022/11/26 12:13:20;;;;;;;;;12.25;11.75;;;;;;;;5037265;28;45572;-61
2022/11/26 12:15:48;;;;;;;;;15.00;12.25;;;;;;;;5037766;28;45661;-60
2022/11/26 12:18:13;;;;;;;;;11.50;10.00;;;;;;;;5037201;28;45480;-60
2022/11/26 12:20:46;;;;;;;;;13.00;13.00;;;;;;;;5037360;28;45397;-61
2022/11/26 12:23:14;;;;;;;;;13.50;11.50;;;;;;;;5037426;28;45437;-60
2022/11/26 12:25:40;;;;;;;;;14.00;14.00;;;;;;;;5036730;28;45476;-61
2022/11/26 12:28:16;;;;;;;;;17.00;13.33;;;;;;;;5037067;28;46325;-61
2022/11/26 12:30:50;;;;;;;;;14.75;13.25;;;;;;;;5037276;28;45566;-61
2022/11/26 12:33:19;;;;;;;;;19.25;12.75;;;;;;;;5037060;28;45557;-61
2022/11/26 12:35:49;;;;;;;;;11.25;10.00;;;;;;;;5037421;28;45480;-61
2022/11/26 12:38:21;;;;;;;;;15.50;11.00;;;;;;;;5037132;28;45613;-61
2022/11/26 12:40:50;;;;;;;;;24.00;17.00;;;;;;;;5035972;28;45523;-61
2022/11/26 12:43:25;;;;;;;;;14.25;13.00;;;;;;;;5036905;28;45391;-61
2022/11/26 12:45:54;;;;;;;;;18.33;14.33;;;;;;;;5058329;27;45592;-61
2022/11/26 12:48:19;;;;;;;;;23.33;19.33;;;;;;;;5099745;27;45603;-61
2022/11/26 12:50:51;;;;;;;;;16.50;12.25;;;;;;;;5110116;27;45444;-62
2022/11/26 12:53:26;;;;;;;;;17.33;12.00;;;;;;;;5114535;27;45477;-62
2022/11/26 12:56:00;;;;;;;;;17.25;11.75;;;;;;;;5112789;27;45416;-62
2022/11/26 12:58:33;;;;;;;;;18.25;15.50;;;;;;;;5116550;27;46229;-62
2022/11/26 13:00:58;;;;;;;;;49.00;38.67;;;;;;;;5119564;27;45500;-62
2022/11/26 13:03:27;;;;;;;;;19.67;13.67;;;;;;;;5120316;27;45451;-62
2022/11/26 13:05:56;;;;;;;;;19.50;14.00;;;;;;;;5120190;27;45305;-62
2022/11/26 13:08:47;;;;;;;;;17.50;14.00;;;;;;;;5115698;27;46528;-62
2022/11/26 13:11:18;;;;;;;;;39.33;34.00;;;;;;;;5102905;27;45557;-62
2022/11/26 13:13:49;;;;;;;;;16.25;14.00;;;;;;;;5105479;27;45623;-62
2022/11/26 13:16:20;;;;;;;;;22.00;16.33;;;;;;;;5105810;27;45469;-62
2022/11/26 13:18:48;;;;;;;;;16.50;14.75;;;;;;;;5106270;27;45603;-62
2022/11/26 13:21:13;;;;;;;;;20.67;14.33;;;;;;;;5117273;27;45564;-62
2022/11/26 13:23:38;;;;;;;;;12.00;12.00;;;;;;;;5104704;27;46215;-62
2022/11/26 13:26:03;;;;;;;;;20.33;17.00;;;;;;;;5107213;27;45455;-62
2022/11/26 13:28:34;;;;;;;;;20.50;12.75;;;;;;;;5112878;27;46077;-62
2022/11/26 13:31:00;;;;;;;;;28.33;18.33;;;;;;;;5109541;27;45891;-60
2022/11/26 13:33:37;;;;;;;;;19.00;17.00;;;;;;;;5110003;27;45509;-61
2022/11/26 13:36:05;;;;;;;;;22.50;18.00;;;;;;;;5115806;27;47089;-61
2022/11/26 13:38:33;;;;;;;;;20.00;15.67;;;;;;;;5098721;27;46227;-61
2022/11/26 13:40:59;;;;;;;;;17.00;13.25;;;;;;;;5104465;27;45440;-61
2022/11/26 13:43:53;;;;;;;;;19.67;15.67;;;;;;;;5106968;27;45930;-61
2022/11/26 13:46:18;;;;;;;;;22.00;18.00;;;;;;;;5109146;27;46253;-61
2022/11/26 13:48:43;;;;;;;;;16.25;14.75;;;;;;;;5114076;27;47633;-62
2022/11/26 13:51:27;;;;;;;;;22.67;16.00;;;;;;;;5128573;27;45386;-61
2022/11/26 13:53:58;;;;;;;;;22.00;17.67;;;;;;;;5139957;27;45353;-61
2022/11/26 13:56:25;;;;;;;;;16.00;12.67;;;;;;;;5132849;27;45483;-62
2022/11/26 13:58:54;;;;;;;;;19.75;14.50;;;;;;;;5118791;27;46429;-62
2022/11/26 14:01:40;;;;;;;;;19.33;16.00;;;;;;;;5118966;27;45639;-61
2022/11/26 14:04:09;;;;;;;;;22.25;17.00;;;;;;;;5118811;27;45363;-61
2022/11/26 14:06:35;;;;;;;;;19.33;16.67;;;;;;;;5131407;27;45441;-61
2022/11/26 14:09:00;;;;;;;;;14.00;14.00;;;;;;;;5122098;27;46425;-60
2022/11/26 14:11:40;;;;;;;;;22.50;12.25;;;;;;;;5098569;27;45291;-60
2022/11/26 14:14:26;;;;;;;;;20.67;17.33;;;;;;;;5118315;27;45491;-61
2022/11/26 14:17:00;;;;;;;;;12.25;12.25;;;;;;;;5101320;27;45848;-61
2022/11/26 14:19:40;;;;;;;;;19.33;14.00;;;;;;;;5114564;27;45991;-60
2022/11/26 14:22:05;;;;;;;;;14.00;11.67;;;;;;;;5100608;27;45445;-60
2022/11/26 14:24:52;;;;;;;;;13.67;10.67;;;;;;;;5098547;27;45607;-61
2022/11/26 14:27:19;;;;;;;;;22.67;15.00;;;;;;;;5097734;27;45300;-61
2022/11/26 14:29:45;;;;;;;;;12.00;6.00;;;;;;;;5098061;27;45409;-61